createdAt,value
2019-05-05T00:02:04.573Z,98988.37
2019-05-05T00:04:49.663Z,98987.94
2019-05-05T00:07:19.785Z,98991.32
2019-05-05T00:09:48.694Z,98996.44
2019-05-05T00:12:21.900Z,98993.00
2019-05-05T00:15:07.901Z,99001.14
2019-05-05T00:17:36.377Z,98998.13
2019-05-05T00:20:07.258Z,99006.66
2019-05-05T00:22:35.657Z,99007.88
2019-05-05T00:25:05.465Z,99008.28
2019-05-05T00:27:34.662Z,99013.47
2019-05-05T00:30:05.402Z,99017.71
2019-05-05T00:32:34.882Z,99020.27
2019-05-05T00:35:04.415Z,99022.36
2019-05-05T00:37:34.601Z,99018.48
2019-05-05T00:40:05.008Z,99024.87
2019-05-05T00:42:35.193Z,99021.44
2019-05-05T00:45:07.262Z,99022.28
2019-05-05T00:47:54.408Z,99023.09
2019-05-05T00:50:25.091Z,99023.12
2019-05-05T00:52:55.075Z,99023.22
2019-05-05T00:55:24.477Z,99030.49
2019-05-05T00:57:54.770Z,99031.30
2019-05-05T01:00:29.366Z,99032.57
2019-05-05T01:02:57.946Z,99027.45
2019-05-05T01:05:28.023Z,99032.08
2019-05-05T01:07:56.417Z,99026.52
2019-05-05T01:10:24.985Z,99031.14
2019-05-05T01:12:54.445Z,99029.38
2019-05-05T01:15:25.306Z,99029.31
2019-05-05T01:17:55.163Z,99029.64
2019-05-05T01:20:25.001Z,99035.23
2019-05-05T01:22:55.236Z,99035.23
2019-05-05T01:25:25.366Z,99035.64
2019-05-05T01:27:54.587Z,99035.12
2019-05-05T01:30:25.007Z,99041.45
2019-05-05T01:32:56.052Z,99043.13
2019-05-05T01:35:24.941Z,99040.09
2019-05-05T01:37:55.095Z,99037.88
2019-05-05T01:40:25.146Z,99044.23
2019-05-05T01:42:54.732Z,99045.05
2019-05-05T01:45:24.244Z,99045.85
2019-05-05T01:47:54.544Z,99045.77
2019-05-05T01:50:24.866Z,99048.30
2019-05-05T01:52:55.005Z,99050.42
2019-05-05T01:55:25.227Z,99048.64
2019-05-05T01:57:54.406Z,99057.11
2019-05-05T02:00:22.866Z,99052.44
2019-05-05T02:02:51.364Z,99045.98
2019-05-05T02:05:19.787Z,99051.95
2019-05-05T02:07:48.206Z,99045.95
2019-05-05T02:10:16.912Z,99050.17
2019-05-05T02:12:45.439Z,99045.54
2019-05-05T02:15:15.053Z,99044.30
2019-05-05T02:17:44.540Z,99043.90
2019-05-05T02:20:28.612Z,99048.60
2019-05-05T02:22:46.327Z,99042.15
2019-05-05T02:25:14.749Z,99042.95
2019-05-05T02:27:44.675Z,99047.14
2019-05-05T02:30:35.860Z,99047.09
2019-05-05T02:33:06.306Z,99056.04
2019-05-05T02:35:35.361Z,99051.77
2019-05-05T02:38:06.486Z,99052.98
2019-05-05T02:40:35.190Z,99055.53
2019-05-05T02:43:05.488Z,99060.14
2019-05-05T02:45:48.047Z,99057.13
2019-05-05T02:48:18.443Z,99069.06
2019-05-05T02:51:02.237Z,99062.19
2019-05-05T02:53:39.318Z,99066.39
2019-05-05T02:56:11.443Z,99068.12
2019-05-05T02:58:40.397Z,99070.22
2019-05-05T03:01:24.396Z,99068.94
2019-05-05T03:03:54.373Z,99072.75
2019-05-05T03:06:23.767Z,99072.72
2019-05-05T03:08:54.301Z,99073.07
2019-05-05T03:11:23.706Z,99073.05
2019-05-05T03:13:55.241Z,99070.45
2019-05-05T03:16:26.713Z,99082.34
2019-05-05T03:18:55.970Z,99080.67
2019-05-05T03:21:25.223Z,99075.99
2019-05-05T03:23:54.791Z,99077.97
2019-05-05T03:26:23.757Z,99080.87
2019-05-05T03:28:54.557Z,99085.56
2019-05-05T03:31:26.178Z,99083.83
2019-05-05T03:33:55.138Z,99084.66
2019-05-05T03:36:24.509Z,99090.17
2019-05-05T03:38:54.891Z,99083.02
2019-05-05T03:41:27.008Z,99088.98
2019-05-05T03:44:10.784Z,99093.13
2019-05-05T03:46:39.521Z,99105.86
2019-05-05T03:49:07.998Z,99093.88
2019-05-05T03:51:38.000Z,99102.39
2019-05-05T03:54:07.138Z,99104.53
2019-05-05T03:56:35.711Z,99105.47
2019-05-05T03:59:05.037Z,99106.38
2019-05-05T04:01:37.024Z,99106.10
2019-05-05T04:04:25.189Z,99107.94
2019-05-05T04:06:57.676Z,99106.38
2019-05-05T04:09:26.248Z,99105.17
2019-05-05T04:11:55.119Z,99105.91
2019-05-05T04:14:24.948Z,99106.80
2019-05-05T04:17:03.690Z,99109.39
2019-05-05T04:19:43.627Z,99107.53
2019-05-05T04:22:13.533Z,99115.69
2019-05-05T04:24:43.605Z,99119.95
2019-05-05T04:27:14.391Z,99123.23
2019-05-05T04:29:43.960Z,99125.59
2019-05-05T04:32:14.101Z,99121.78
2019-05-05T04:34:43.840Z,99119.13
2019-05-05T04:37:14.654Z,99128.23
2019-05-05T04:39:44.343Z,99140.85
2019-05-05T04:42:14.043Z,99147.14
2019-05-05T04:44:44.627Z,99149.80
2019-05-05T04:47:16.867Z,99153.55
2019-05-05T04:49:49.887Z,99156.07
2019-05-05T04:52:28.999Z,99160.13
2019-05-05T04:54:57.425Z,99170.56
2019-05-05T04:57:25.914Z,99167.05
2019-05-05T04:59:54.350Z,99163.31
2019-05-05T05:02:34.110Z,99162.97
2019-05-05T05:05:04.390Z,99159.84
2019-05-05T05:07:34.452Z,99162.23
2019-05-05T05:10:04.450Z,99162.23
2019-05-05T05:12:34.181Z,99162.66
2019-05-05T05:15:04.322Z,99165.72
2019-05-05T05:17:36.887Z,99164.88
2019-05-05T05:20:08.876Z,99157.70
2019-05-05T05:22:37.280Z,99164.25
2019-05-05T05:25:06.461Z,99173.97
2019-05-05T05:27:34.963Z,99174.69
2019-05-05T05:30:04.677Z,99169.97
2019-05-05T05:32:34.019Z,99176.69
2019-05-05T05:35:03.724Z,99182.31
2019-05-05T05:37:34.108Z,99176.52
2019-05-05T05:40:09.591Z,99185.70
2019-05-05T05:42:38.007Z,99179.98
2019-05-05T05:45:17.984Z,99189.77
2019-05-05T05:47:59.927Z,99193.53
2019-05-05T05:50:33.946Z,99196.20
2019-05-05T05:53:04.576Z,99201.19
2019-05-05T05:55:34.320Z,99201.52
2019-05-05T05:58:04.780Z,99202.31
2019-05-05T06:00:34.329Z,99219.30
2019-05-05T06:03:03.888Z,99214.59
2019-05-05T06:05:34.282Z,99223.02
2019-05-05T06:10:35.152Z,99230.38
2019-05-05T06:13:04.227Z,99233.92
2019-05-05T06:15:33.760Z,99237.09
2019-05-05T06:18:04.454Z,99242.81
2019-05-05T06:20:34.458Z,99244.82
2019-05-05T06:23:04.086Z,99243.89
2019-05-05T06:25:34.219Z,99246.14
2019-05-05T06:28:04.255Z,99244.47
2019-05-05T06:30:33.636Z,99240.06
2019-05-05T06:33:04.619Z,99248.02
2019-05-05T06:35:33.854Z,99253.45
2019-05-05T06:38:04.490Z,99248.16
2019-05-05T06:40:34.253Z,99256.02
2019-05-05T06:43:07.276Z,99255.89
2019-05-05T06:45:44.354Z,99251.59
2019-05-05T06:48:13.578Z,99243.61
2019-05-05T06:50:43.711Z,99246.98
2019-05-05T06:53:13.566Z,99255.56
2019-05-05T06:55:44.311Z,99259.99
2019-05-05T06:58:13.648Z,99263.84
2019-05-05T07:00:43.929Z,99258.91
2019-05-05T07:03:13.897Z,99265.65
2019-05-05T07:05:43.701Z,99264.81
2019-05-05T07:08:13.808Z,99267.16
2019-05-05T07:10:44.256Z,99265.02
2019-05-05T07:13:13.967Z,99268.00
2019-05-05T07:15:43.799Z,99268.91
2019-05-05T07:18:14.265Z,99274.89
2019-05-05T07:20:44.092Z,99280.03
2019-05-05T07:23:14.488Z,99278.36
2019-05-05T07:25:45.673Z,99277.27
2019-05-05T07:28:14.659Z,99273.62
2019-05-05T07:30:44.236Z,99275.51
2019-05-05T07:33:14.713Z,99268.36
2019-05-05T07:35:56.716Z,99273.99
2019-05-05T07:38:20.746Z,99270.18
2019-05-05T07:40:49.180Z,99268.91
2019-05-05T07:43:18.532Z,99265.89
2019-05-05T07:45:47.018Z,99262.88
2019-05-05T07:48:15.415Z,99268.02
2019-05-05T07:50:58.656Z,99262.42
2019-05-05T07:53:17.661Z,99267.55
2019-05-05T07:55:44.470Z,99270.53
2019-05-05T07:58:13.941Z,99266.63
2019-05-05T08:00:43.682Z,99273.53
2019-05-05T08:03:14.230Z,99269.26
2019-05-05T08:05:44.246Z,99270.52
2019-05-05T08:08:13.900Z,99276.89
2019-05-05T08:10:43.814Z,99272.11
2019-05-05T08:13:14.096Z,99275.92
2019-05-05T08:15:56.305Z,99272.02
2019-05-05T08:18:28.318Z,99281.84
2019-05-05T08:20:58.475Z,99285.23
2019-05-05T08:23:32.537Z,99283.78
2019-05-05T08:26:09.488Z,99284.50
2019-05-05T08:28:39.989Z,99282.70
2019-05-05T08:31:18.815Z,99283.58
2019-05-05T08:33:47.229Z,99280.41
2019-05-05T08:36:15.713Z,99277.39
2019-05-05T08:38:44.288Z,99281.19
2019-05-05T08:41:13.917Z,99274.99
2019-05-05T08:43:44.088Z,99265.16
2019-05-05T08:46:14.384Z,99272.81
2019-05-05T08:48:44.740Z,99269.05
2019-05-05T08:51:14.128Z,99266.67
2019-05-05T08:53:47.881Z,99268.72
2019-05-05T08:56:14.576Z,99264.48
2019-05-05T08:58:43.824Z,99272.88
2019-05-05T09:01:14.734Z,99277.45
2019-05-05T09:03:44.326Z,99271.44
2019-05-05T09:06:13.756Z,99270.27
2019-05-05T09:08:44.088Z,99263.55
2019-05-05T09:11:14.055Z,99263.52
2019-05-05T09:13:44.652Z,99256.84
2019-05-05T09:16:14.567Z,99262.83
2019-05-05T09:18:48.288Z,99266.53
2019-05-05T09:21:16.825Z,99267.86
2019-05-05T09:23:59.135Z,99269.16
2019-05-05T09:26:34.418Z,99265.41
2019-05-05T09:29:24.257Z,99258.20
2019-05-05T09:31:54.016Z,99248.50
2019-05-05T09:34:23.998Z,99252.69
2019-05-05T09:36:54.436Z,99250.90
2019-05-05T09:39:23.984Z,99253.03
2019-05-05T09:41:53.601Z,99254.06
2019-05-05T09:44:24.071Z,99241.04
2019-05-05T09:46:53.828Z,99243.03
2019-05-05T09:49:24.472Z,99244.04
2019-05-05T09:51:54.468Z,99244.41
2019-05-05T09:54:24.296Z,99253.16
2019-05-05T09:56:53.751Z,99251.97
2019-05-05T09:59:24.036Z,99259.19
2019-05-05T10:01:53.814Z,99263.30
2019-05-05T10:04:24.323Z,99271.64
2019-05-05T10:06:52.934Z,99268.52
2019-05-05T10:09:21.543Z,99275.77
2019-05-05T10:11:49.995Z,99282.66
2019-05-05T10:14:18.425Z,99280.31
2019-05-05T10:16:46.823Z,99282.28
2019-05-05T10:19:15.260Z,99286.08
2019-05-05T10:21:44.457Z,99280.89
2019-05-05T10:24:28.701Z,99282.23
2019-05-05T10:26:50.367Z,99283.91
2019-05-05T10:29:18.781Z,99281.12
2019-05-05T10:31:47.271Z,99287.27
2019-05-05T10:34:17.322Z,99281.44
2019-05-05T10:36:45.958Z,99281.62
2019-05-05T10:39:25.157Z,99277.83
2019-05-05T10:41:56.185Z,99283.69
2019-05-05T10:44:23.887Z,99283.61
2019-05-05T10:46:53.901Z,99294.11
2019-05-05T10:49:24.384Z,99291.81
2019-05-05T10:51:54.344Z,99297.33
2019-05-05T10:54:23.653Z,99297.33
2019-05-05T10:56:52.160Z,99300.57
2019-05-05T10:59:20.579Z,99292.70
2019-05-05T11:01:49.079Z,99294.48
2019-05-05T11:04:17.573Z,99290.45
2019-05-05T11:06:46.077Z,99285.73
2019-05-05T11:09:14.537Z,99283.07
2019-05-05T11:11:43.843Z,99282.77
2019-05-05T11:14:14.168Z,99277.66
2019-05-05T11:16:43.881Z,99273.42
2019-05-05T11:19:13.665Z,99273.78
2019-05-05T11:21:43.543Z,99273.30
2019-05-05T11:24:12.214Z,99277.48
2019-05-05T11:26:40.622Z,99268.00
2019-05-05T11:29:09.056Z,99267.95
2019-05-05T11:31:37.474Z,99277.34
2019-05-05T11:34:14.073Z,99274.03
2019-05-05T11:36:54.386Z,99274.03
2019-05-05T11:39:23.527Z,99277.33
2019-05-05T11:41:51.945Z,99285.08
2019-05-05T11:44:20.358Z,99289.38
2019-05-05T11:46:48.762Z,99304.23
2019-05-05T11:49:17.180Z,99294.71
2019-05-05T11:51:45.595Z,99298.72
2019-05-05T11:54:14.209Z,99301.25
2019-05-05T11:56:44.686Z,99302.45
2019-05-05T11:59:14.449Z,99289.62
2019-05-05T12:01:44.053Z,99289.53
2019-05-05T12:04:14.936Z,99288.81
2019-05-05T12:06:44.255Z,99291.00
2019-05-05T12:09:14.474Z,99283.95
2019-05-05T12:11:43.878Z,99283.62
2019-05-05T12:14:14.345Z,99275.33
2019-05-05T12:16:43.871Z,99278.27
2019-05-05T12:19:13.708Z,99275.33
2019-05-05T12:21:44.216Z,99279.32
2019-05-05T12:24:14.442Z,99289.03
2019-05-05T12:26:47.515Z,99287.41
2019-05-05T12:29:15.912Z,99275.36
2019-05-05T12:31:45.975Z,99277.77
2019-05-05T12:34:14.543Z,99277.94
2019-05-05T12:36:44.512Z,99269.01
2019-05-05T12:39:14.249Z,99274.39
2019-05-05T12:41:42.863Z,99275.33
2019-05-05T12:44:14.269Z,99269.67
2019-05-05T12:46:47.340Z,99273.66
2019-05-05T12:49:15.928Z,99274.05
2019-05-05T12:51:44.326Z,99277.94
2019-05-05T12:54:14.706Z,99263.94
2019-05-05T12:56:44.529Z,99266.86
2019-05-05T12:59:14.737Z,99258.80
2019-05-05T13:01:44.155Z,99259.34
2019-05-05T13:04:14.156Z,99255.70
2019-05-05T13:06:44.893Z,99249.61
2019-05-05T13:09:13.644Z,99252.27
2019-05-05T13:11:43.608Z,99251.33
2019-05-05T13:14:14.296Z,99254.50
2019-05-05T13:16:52.111Z,99257.71
2019-05-05T13:19:14.693Z,99251.77
2019-05-05T13:21:44.772Z,99249.00
2019-05-05T13:24:23.906Z,99251.17
2019-05-05T13:26:54.207Z,99250.53
2019-05-05T13:29:24.467Z,99247.37
2019-05-05T13:31:54.378Z,99249.34
2019-05-05T13:34:22.896Z,99246.09
2019-05-05T13:36:51.389Z,99245.40
2019-05-05T13:39:19.795Z,99251.60
2019-05-05T13:41:48.209Z,99264.63
2019-05-05T13:44:18.271Z,99268.59
2019-05-05T13:46:46.732Z,99274.96
2019-05-05T13:49:19.830Z,99279.34
2019-05-05T13:51:48.302Z,99279.90
2019-05-05T13:54:16.695Z,99285.22
2019-05-05T13:56:45.140Z,99284.39
2019-05-05T13:59:14.259Z,99284.99
2019-05-05T14:01:44.707Z,99283.92
2019-05-05T14:04:12.894Z,99278.23
2019-05-05T14:06:41.420Z,99277.33
2019-05-05T14:09:09.952Z,99265.89
2019-05-05T14:11:38.379Z,99270.16
2019-05-05T14:14:06.802Z,99273.13
2019-05-05T14:16:35.185Z,99272.41
2019-05-05T14:19:04.445Z,99266.65
2019-05-05T14:21:33.949Z,99277.23
2019-05-05T14:24:04.110Z,99269.13
2019-05-05T14:26:35.204Z,99265.81
2019-05-05T14:29:04.358Z,99265.02
2019-05-05T14:31:37.509Z,99278.59
2019-05-05T14:34:10.593Z,99270.78
2019-05-05T14:36:40.650Z,99275.48
2019-05-05T14:39:11.225Z,99269.76
2019-05-05T14:41:39.644Z,99267.99
2019-05-05T14:44:08.061Z,99264.67
2019-05-05T14:46:36.468Z,99264.02
2019-05-05T14:49:05.827Z,99268.66
2019-05-05T14:51:34.580Z,99263.91
2019-05-05T14:54:04.566Z,99268.77
2019-05-05T14:56:36.448Z,99270.20
2019-05-05T14:59:03.729Z,99265.50
2019-05-05T15:01:34.418Z,99270.33
2019-05-05T15:04:04.315Z,99265.39
2019-05-05T15:06:37.032Z,99265.89
2019-05-05T15:09:10.576Z,99269.29
2019-05-05T15:11:49.443Z,99256.66
2019-05-05T15:14:17.851Z,99262.41
2019-05-05T15:16:46.357Z,99251.05
2019-05-05T15:19:14.855Z,99260.30
2019-05-05T15:21:44.271Z,99260.30
2019-05-05T15:24:13.985Z,99253.87
2019-05-05T15:26:51.297Z,99255.04
2019-05-05T15:29:12.555Z,99248.44
2019-05-05T15:31:41.126Z,99244.23
2019-05-05T15:34:09.606Z,99243.67
2019-05-05T15:36:38.093Z,99242.84
2019-05-05T15:39:07.717Z,99235.16
2019-05-05T15:41:36.150Z,99241.39
2019-05-05T15:44:04.965Z,99241.30
2019-05-05T15:46:33.774Z,99234.56
2019-05-05T15:49:04.132Z,99241.24
2019-05-05T15:51:34.198Z,99239.31
2019-05-05T15:54:03.846Z,99239.87
2019-05-05T15:56:34.036Z,99232.42
2019-05-05T15:59:02.592Z,99238.72
2019-05-05T16:01:31.077Z,99249.13
2019-05-05T16:04:03.526Z,99236.63
2019-05-05T16:06:34.333Z,99250.12
2019-05-05T16:09:06.957Z,99251.98
2019-05-05T16:11:35.552Z,99258.02
2019-05-05T16:14:05.407Z,99254.91
2019-05-05T16:16:38.462Z,99261.42
2019-05-05T16:19:14.924Z,99259.29
2019-05-05T16:21:45.432Z,99267.47
2019-05-05T16:24:15.763Z,99268.45
2019-05-05T16:26:44.258Z,99266.33
2019-05-05T16:29:14.706Z,99263.91
2019-05-05T16:31:43.153Z,99263.99
2019-05-05T16:34:11.815Z,99265.41
2019-05-05T16:36:40.254Z,99279.66
2019-05-05T16:39:09.164Z,99280.88
2019-05-05T16:41:37.579Z,99282.22
2019-05-05T16:44:06.152Z,99281.72
2019-05-05T16:46:34.674Z,99286.00
2019-05-05T16:49:03.573Z,99295.54
2019-05-05T16:51:35.017Z,99290.44
2019-05-05T16:54:05.087Z,99290.41
2019-05-05T16:56:33.679Z,99293.55
2019-05-05T16:59:02.587Z,99294.67
2019-05-05T17:01:31.155Z,99293.25
2019-05-05T17:04:09.248Z,99297.97
2019-05-05T17:06:29.735Z,99291.64
2019-05-05T17:08:58.158Z,99286.23
2019-05-05T17:11:26.574Z,99288.09
2019-05-05T17:13:56.617Z,99289.39
2019-05-05T17:16:29.369Z,99288.12
2019-05-05T17:19:14.344Z,99291.42
2019-05-05T17:21:47.120Z,99293.61
2019-05-05T17:24:15.565Z,99294.00
2019-05-05T17:26:44.007Z,99292.94
2019-05-05T17:29:14.464Z,99294.75
2019-05-05T17:31:44.379Z,99290.41
2019-05-05T17:34:13.712Z,99293.77
2019-05-05T17:36:42.244Z,99292.00
2019-05-05T17:39:10.643Z,99289.63
2019-05-05T17:41:49.457Z,99288.41
2019-05-05T17:44:19.519Z,99296.94
2019-05-05T17:46:53.802Z,99292.27
2019-05-05T17:49:32.721Z,99292.63
2019-05-05T17:52:08.772Z,99293.73
2019-05-05T17:54:38.853Z,99299.42
2019-05-05T17:57:07.276Z,99298.13
2019-05-05T17:59:35.683Z,99296.80
2019-05-05T18:02:04.695Z,99289.27
2019-05-05T18:04:33.736Z,99299.31
2019-05-05T18:07:16.567Z,99302.16
2019-05-05T18:09:53.812Z,99295.82
2019-05-05T18:12:26.910Z,99296.00
2019-05-05T18:14:59.611Z,99306.87
2019-05-05T18:17:28.039Z,99305.81
2019-05-05T18:19:56.456Z,99303.25
2019-05-05T18:22:24.871Z,99312.23
2019-05-05T18:24:54.024Z,99304.34
2019-05-05T18:27:23.703Z,99312.76
2019-05-05T18:29:54.243Z,99312.42
2019-05-05T18:32:23.579Z,99316.00
2019-05-05T18:34:54.350Z,99321.55
2019-05-05T18:37:24.037Z,99314.11
2019-05-05T18:39:54.646Z,99316.56
2019-05-05T18:42:24.761Z,99317.48
2019-05-05T18:45:03.821Z,99318.53
2019-05-05T18:47:33.933Z,99319.45
2019-05-05T18:50:04.150Z,99326.98
2019-05-05T18:52:34.670Z,99330.05
2019-05-05T18:55:05.569Z,99331.07
2019-05-05T18:57:34.259Z,99333.86
2019-05-05T19:00:05.618Z,99329.99
2019-05-05T19:02:47.417Z,99336.62
2019-05-05T19:05:35.294Z,99337.16
2019-05-05T19:08:08.437Z,99336.55
2019-05-05T19:10:36.851Z,99346.50
2019-05-05T19:13:05.279Z,99346.70
2019-05-05T19:15:34.949Z,99350.27
2019-05-05T19:18:06.327Z,99353.42
2019-05-05T19:20:47.536Z,99350.83
2019-05-05T19:23:15.956Z,99361.25
2019-05-05T19:25:44.851Z,99359.55
2019-05-05T19:28:14.204Z,99360.44
2019-05-05T19:30:44.075Z,99361.79
2019-05-05T19:33:13.381Z,99365.70
2019-05-05T19:35:45.218Z,99367.41
2019-05-05T19:38:15.599Z,99367.84
2019-05-05T19:40:43.164Z,99372.62
2019-05-05T19:43:11.512Z,99370.45
2019-05-05T19:45:39.929Z,99371.27
2019-05-05T19:48:08.363Z,99372.04
2019-05-05T19:50:50.505Z,99374.20
2019-05-05T19:53:24.634Z,99373.35
2019-05-05T19:55:54.807Z,99366.91
2019-05-05T19:58:23.400Z,99372.50
2019-05-05T20:00:52.238Z,99381.11
2019-05-05T20:03:20.743Z,99375.95
2019-05-05T20:05:49.204Z,99375.91
2019-05-05T20:08:17.766Z,99381.98
2019-05-05T20:10:46.200Z,99378.03
2019-05-05T20:13:14.663Z,99381.89
2019-05-05T20:15:47.451Z,99381.02
2019-05-05T20:18:15.862Z,99378.39
2019-05-05T20:20:44.586Z,99381.83
2019-05-05T20:23:13.695Z,99384.34
2019-05-05T20:25:42.174Z,99385.73
2019-05-05T20:28:10.603Z,99389.99
2019-05-05T20:30:39.016Z,99388.34
2019-05-05T20:33:09.109Z,99390.95
2019-05-05T20:35:39.166Z,99391.78
2019-05-05T20:38:14.981Z,99395.28
2019-05-05T20:41:01.616Z,99393.58
2019-05-05T20:43:30.027Z,99392.38
2019-05-05T20:45:58.499Z,99394.92
2019-05-05T20:48:26.894Z,99394.48
2019-05-05T20:50:55.361Z,99388.07
2019-05-05T20:53:24.670Z,99391.15
2019-05-05T20:55:54.469Z,99392.94
2019-05-05T20:58:23.909Z,99400.67
2019-05-05T21:00:52.322Z,99391.67
2019-05-05T21:03:20.757Z,99396.89
2019-05-05T21:05:49.222Z,99404.23
2019-05-05T21:08:17.720Z,99398.24
2019-05-05T21:10:46.219Z,99395.75
2019-05-05T21:13:14.632Z,99393.98
2019-05-05T21:15:45.030Z,99394.04
2019-05-05T21:18:14.333Z,99394.92
2019-05-05T21:20:42.973Z,99393.63
2019-05-05T21:23:14.422Z,99394.09
2019-05-05T21:25:44.562Z,99398.85
2019-05-05T21:28:14.660Z,99401.42
2019-05-05T21:30:43.099Z,99402.22
2019-05-05T21:33:11.518Z,99401.42
2019-05-05T21:35:39.907Z,99400.98
2019-05-05T21:38:08.334Z,99401.02
2019-05-05T21:40:36.996Z,99401.38
2019-05-05T21:43:05.422Z,99407.86
2019-05-05T21:45:34.735Z,99404.02
2019-05-05T21:48:04.301Z,99406.55
2019-05-05T21:50:34.596Z,99405.34
2019-05-05T21:53:24.610Z,99407.46
2019-05-05T21:55:57.165Z,99405.35
2019-05-05T21:58:27.213Z,99405.83
2019-05-05T22:00:59.823Z,99409.31
2019-05-05T22:03:37.582Z,99410.61
2019-05-05T22:06:06.104Z,99412.80
2019-05-05T22:08:35.820Z,99409.39
2019-05-05T22:11:04.654Z,99405.50
2019-05-05T22:13:36.302Z,99406.40
2019-05-05T22:16:04.080Z,99402.95
2019-05-05T22:18:32.669Z,99404.70
2019-05-05T22:21:05.409Z,99406.00
2019-05-05T22:23:33.993Z,99405.63
2019-05-05T22:26:04.230Z,99407.81
2019-05-05T22:28:34.051Z,99404.40
2019-05-05T22:31:04.691Z,99402.27
2019-05-05T22:33:34.050Z,99416.09
2019-05-05T22:36:04.401Z,99415.21
2019-05-05T22:38:33.982Z,99417.80
2019-05-05T22:41:02.594Z,99419.13
2019-05-05T22:43:31.086Z,99419.55
2019-05-05T22:45:59.499Z,99419.56
2019-05-05T22:48:27.905Z,99418.72
2019-05-05T22:50:56.344Z,99419.11
2019-05-05T22:53:24.755Z,99420.41
2019-05-05T22:55:53.157Z,99421.25
2019-05-05T22:58:23.868Z,99419.55
2019-05-05T23:00:51.766Z,99421.69
2019-05-05T23:03:27.434Z,99419.53
2019-05-05T23:06:04.312Z,99415.23
2019-05-05T23:08:34.896Z,99416.97
2019-05-05T23:11:04.020Z,99415.67
2019-05-05T23:13:33.729Z,99421.25
2019-05-05T23:16:06.690Z,99413.52
2019-05-05T23:18:35.746Z,99422.09
2019-05-05T23:21:15.616Z,99415.66
2019-05-05T23:23:59.833Z,99418.64
2019-05-05T23:26:43.618Z,99416.07
2019-05-05T23:29:11.796Z,99416.07
2019-05-05T23:31:40.191Z,99405.80
2019-05-05T23:34:08.634Z,99409.21
2019-05-05T23:36:37.058Z,99412.23
2019-05-05T23:39:07.397Z,99405.77
2019-05-05T23:41:37.224Z,99408.80
2019-05-05T23:44:06.121Z,99411.77
2019-05-05T23:46:34.964Z,99411.31
2019-05-05T23:49:04.282Z,99407.88
2019-05-05T23:51:34.642Z,99411.28
2019-05-05T23:54:04.260Z,99409.16
2019-05-05T23:56:34.783Z,99405.71
2019-05-05T23:59:04.258Z,99411.27
